sensor_id;sensor_type;location;lat;lon;timestamp;P1;durP1;ratioP1;P2;durP2;ratioP2
67798;SDS011;54596;43.216;27.904;2023-04-07T00:00:13;23.60;;;16.70;;
67798;SDS011;54596;43.216;27.904;2023-04-07T00:02:40;21.80;;;16.63;;
67798;SDS011;54596;43.216;27.904;2023-04-07T00:05:08;29.58;;;16.60;;
67798;SDS011;54596;43.216;27.904;2023-04-07T00:07:35;31.70;;;16.77;;
67798;SDS011;54596;43.216;27.904;2023-04-07T00:10:01;27.35;;;16.77;;
67798;SDS011;54596;43.216;27.904;2023-04-07T00:12:26;24.50;;;15.85;;
67798;SDS011;54596;43.216;27.904;2023-04-07T00:14:52;27.48;;;16.33;;
67798;SDS011;54596;43.216;27.904;2023-04-07T00:17:18;22.38;;;15.05;;
67798;SDS011;54596;43.216;27.904;2023-04-07T00:19:44;22.13;;;14.93;;
67798;SDS011;54596;43.216;27.904;2023-04-07T00:22:09;23.70;;;15.00;;
67798;SDS011;54596;43.216;27.904;2023-04-07T00:24:35;21.40;;;14.40;;
67798;SDS011;54596;43.216;27.904;2023-04-07T00:27:01;23.10;;;14.43;;
67798;SDS011;54596;43.216;27.904;2023-04-07T00:29:26;22.20;;;14.65;;
67798;SDS011;54596;43.216;27.904;2023-04-07T00:31:52;22.95;;;14.43;;
67798;SDS011;54596;43.216;27.904;2023-04-07T00:34:17;20.73;;;13.70;;
67798;SDS011;54596;43.216;27.904;2023-04-07T00:36:44;20.08;;;13.60;;
67798;SDS011;54596;43.216;27.904;2023-04-07T00:39:16;21.63;;;13.57;;
67798;SDS011;54596;43.216;27.904;2023-04-07T00:41:43;20.70;;;12.90;;
67798;SDS011;54596;43.216;27.904;2023-04-07T00:44:09;20.23;;;12.57;;
67798;SDS011;54596;43.216;27.904;2023-04-07T00:46:35;23.08;;;12.35;;
67798;SDS011;54596;43.216;27.904;2023-04-07T00:49:00;20.67;;;12.23;;
67798;SDS011;54596;43.216;27.904;2023-04-07T00:51:28;18.73;;;11.65;;
67798;SDS011;54596;43.216;27.904;2023-04-07T00:53:53;20.33;;;11.90;;
67798;SDS011;54596;43.216;27.904;2023-04-07T00:56:19;16.63;;;10.10;;
67798;SDS011;54596;43.216;27.904;2023-04-07T00:58:44;15.05;;;9.48;;
67798;SDS011;54596;43.216;27.904;2023-04-07T01:01:11;16.55;;;9.75;;
67798;SDS011;54596;43.216;27.904;2023-04-07T01:03:45;16.15;;;9.93;;
67798;SDS011;54596;43.216;27.904;2023-04-07T01:06:18;28.33;;;9.90;;
67798;SDS011;54596;43.216;27.904;2023-04-07T01:09:10;22.08;;;10.18;;
67798;SDS011;54596;43.216;27.904;2023-04-07T01:11:47;17.67;;;9.38;;
67798;SDS011;54596;43.216;27.904;2023-04-07T01:14:23;18.53;;;9.13;;
67798;SDS011;54596;43.216;27.904;2023-04-07T01:16:51;18.92;;;9.43;;
67798;SDS011;54596;43.216;27.904;2023-04-07T01:21:58;17.25;;;8.38;;
67798;SDS011;54596;43.216;27.904;2023-04-07T01:24:51;16.02;;;8.45;;
67798;SDS011;54596;43.216;27.904;2023-04-07T01:27:41;15.20;;;8.30;;
67798;SDS011;54596;43.216;27.904;2023-04-07T01:30:19;14.40;;;8.10;;
67798;SDS011;54596;43.216;27.904;2023-04-07T01:32:49;14.23;;;8.23;;
67798;SDS011;54596;43.216;27.904;2023-04-07T01:35:17;16.08;;;8.52;;
67798;SDS011;54596;43.216;27.904;2023-04-07T01:37:43;14.50;;;8.50;;
67798;SDS011;54596;43.216;27.904;2023-04-07T01:40:14;16.63;;;8.35;;
67798;SDS011;54596;43.216;27.904;2023-04-07T01:42:40;14.30;;;7.95;;
67798;SDS011;54596;43.216;27.904;2023-04-07T01:45:07;14.85;;;7.97;;
67798;SDS011;54596;43.216;27.904;2023-04-07T01:47:35;15.60;;;8.20;;
67798;SDS011;54596;43.216;27.904;2023-04-07T01:50:04;15.23;;;7.90;;
67798;SDS011;54596;43.216;27.904;2023-04-07T01:52:33;14.93;;;7.60;;
67798;SDS011;54596;43.216;27.904;2023-04-07T01:55:00;14.48;;;7.80;;
67798;SDS011;54596;43.216;27.904;2023-04-07T01:57:26;33.15;;;9.10;;
67798;SDS011;54596;43.216;27.904;2023-04-07T01:59:52;17.90;;;8.18;;
67798;SDS011;54596;43.216;27.904;2023-04-07T02:02:19;14.30;;;8.13;;
67798;SDS011;54596;43.216;27.904;2023-04-07T02:04:53;14.63;;;8.43;;
67798;SDS011;54596;43.216;27.904;2023-04-07T02:07:26;14.05;;;7.72;;
67798;SDS011;54596;43.216;27.904;2023-04-07T02:09:58;15.82;;;8.50;;
67798;SDS011;54596;43.216;27.904;2023-04-07T02:12:27;17.85;;;9.15;;
67798;SDS011;54596;43.216;27.904;2023-04-07T02:14:54;16.85;;;8.40;;
67798;SDS011;54596;43.216;27.904;2023-04-07T02:17:22;14.85;;;8.88;;
67798;SDS011;54596;43.216;27.904;2023-04-07T02:19:49;18.05;;;9.02;;
67798;SDS011;54596;43.216;27.904;2023-04-07T02:22:18;13.23;;;7.78;;
67798;SDS011;54596;43.216;27.904;2023-04-07T02:24:43;17.60;;;8.40;;
67798;SDS011;54596;43.216;27.904;2023-04-07T02:27:09;15.27;;;8.50;;
67798;SDS011;54596;43.216;27.904;2023-04-07T02:29:38;14.25;;;8.52;;
67798;SDS011;54596;43.216;27.904;2023-04-07T02:32:05;18.30;;;9.18;;
67798;SDS011;54596;43.216;27.904;2023-04-07T02:34:30;14.52;;;8.35;;
67798;SDS011;54596;43.216;27.904;2023-04-07T02:36:56;16.20;;;8.77;;
67798;SDS011;54596;43.216;27.904;2023-04-07T02:39:21;13.38;;;8.07;;
67798;SDS011;54596;43.216;27.904;2023-04-07T02:41:48;18.88;;;11.10;;
67798;SDS011;54596;43.216;27.904;2023-04-07T02:44:16;20.80;;;11.32;;
67798;SDS011;54596;43.216;27.904;2023-04-07T02:46:41;20.98;;;10.93;;
67798;SDS011;54596;43.216;27.904;2023-04-07T02:49:07;20.05;;;11.20;;
67798;SDS011;54596;43.216;27.904;2023-04-07T02:51:33;17.92;;;11.55;;
67798;SDS011;54596;43.216;27.904;2023-04-07T02:54:00;21.35;;;11.73;;
67798;SDS011;54596;43.216;27.904;2023-04-07T02:56:25;27.60;;;13.20;;
67798;SDS011;54596;43.216;27.904;2023-04-07T02:58:52;27.65;;;12.05;;
67798;SDS011;54596;43.216;27.904;2023-04-07T03:01:18;37.85;;;12.30;;
67798;SDS011;54596;43.216;27.904;2023-04-07T03:03:43;43.03;;;12.02;;
67798;SDS011;54596;43.216;27.904;2023-04-07T03:06:11;23.50;;;10.45;;
67798;SDS011;54596;43.216;27.904;2023-04-07T03:08:37;20.40;;;11.02;;
67798;SDS011;54596;43.216;27.904;2023-04-07T03:11:02;19.23;;;10.65;;
67798;SDS011;54596;43.216;27.904;2023-04-07T03:13:29;16.95;;;11.40;;
67798;SDS011;54596;43.216;27.904;2023-04-07T03:15:56;20.35;;;12.20;;
67798;SDS011;54596;43.216;27.904;2023-04-07T03:18:22;19.55;;;11.68;;
67798;SDS011;54596;43.216;27.904;2023-04-07T03:20:49;21.55;;;11.73;;
67798;SDS011;54596;43.216;27.904;2023-04-07T03:23:17;18.58;;;11.48;;
67798;SDS011;54596;43.216;27.904;2023-04-07T03:25:43;20.73;;;11.05;;
67798;SDS011;54596;43.216;27.904;2023-04-07T03:28:10;17.77;;;10.65;;
67798;SDS011;54596;43.216;27.904;2023-04-07T03:30:36;17.45;;;9.90;;
67798;SDS011;54596;43.216;27.904;2023-04-07T03:33:02;19.42;;;11.00;;
67798;SDS011;54596;43.216;27.904;2023-04-07T03:35:29;25.13;;;11.30;;
67798;SDS011;54596;43.216;27.904;2023-04-07T03:37:54;19.85;;;10.45;;
67798;SDS011;54596;43.216;27.904;2023-04-07T03:40:21;19.98;;;12.77;;
67798;SDS011;54596;43.216;27.904;2023-04-07T03:42:47;23.13;;;15.23;;
67798;SDS011;54596;43.216;27.904;2023-04-07T03:45:12;22.10;;;14.50;;
67798;SDS011;54596;43.216;27.904;2023-04-07T03:47:41;20.23;;;11.88;;
67798;SDS011;54596;43.216;27.904;2023-04-07T03:50:06;17.67;;;11.02;;
67798;SDS011;54596;43.216;27.904;2023-04-07T03:52:32;19.00;;;11.20;;
67798;SDS011;54596;43.216;27.904;2023-04-07T03:54:59;16.98;;;10.70;;
67798;SDS011;54596;43.216;27.904;2023-04-07T03:57:24;23.50;;;11.18;;
67798;SDS011;54596;43.216;27.904;2023-04-07T03:59:51;19.10;;;11.50;;
67798;SDS011;54596;43.216;27.904;2023-04-07T04:02:17;22.30;;;14.38;;
67798;SDS011;54596;43.216;27.904;2023-04-07T04:04:42;18.65;;;12.88;;
67798;SDS011;54596;43.216;27.904;2023-04-07T04:07:08;31.38;;;13.95;;
67798;SDS011;54596;43.216;27.904;2023-04-07T04:09:33;20.40;;;11.27;;
67798;SDS011;54596;43.216;27.904;2023-04-07T04:12:00;18.95;;;11.60;;
67798;SDS011;54596;43.216;27.904;2023-04-07T04:14:26;20.75;;;11.50;;
67798;SDS011;54596;43.216;27.904;2023-04-07T04:16:52;19.42;;;11.73;;
67798;SDS011;54596;43.216;27.904;2023-04-07T04:19:18;22.92;;;11.93;;
67798;SDS011;54596;43.216;27.904;2023-04-07T04:21:44;20.55;;;12.25;;
67798;SDS011;54596;43.216;27.904;2023-04-07T04:24:10;22.67;;;12.57;;
67798;SDS011;54596;43.216;27.904;2023-04-07T04:26:35;23.27;;;12.10;;
67798;SDS011;54596;43.216;27.904;2023-04-07T04:29:01;18.30;;;11.82;;
67798;SDS011;54596;43.216;27.904;2023-04-07T04:31:27;24.35;;;13.75;;
67798;SDS011;54596;43.216;27.904;2023-04-07T04:33:53;24.23;;;13.63;;
67798;SDS011;54596;43.216;27.904;2023-04-07T04:36:18;28.02;;;13.88;;
67798;SDS011;54596;43.216;27.904;2023-04-07T04:38:46;27.60;;;12.27;;
67798;SDS011;54596;43.216;27.904;2023-04-07T04:41:13;22.95;;;12.27;;
67798;SDS011;54596;43.216;27.904;2023-04-07T04:43:39;27.50;;;15.60;;
67798;SDS011;54596;43.216;27.904;2023-04-07T04:46:06;21.10;;;12.98;;
67798;SDS011;54596;43.216;27.904;2023-04-07T04:48:33;22.33;;;12.70;;
67798;SDS011;54596;43.216;27.904;2023-04-07T04:50:58;28.58;;;17.25;;
67798;SDS011;54596;43.216;27.904;2023-04-07T04:53:25;27.58;;;14.00;;
67798;SDS011;54596;43.216;27.904;2023-04-07T04:55:50;22.27;;;13.95;;
67798;SDS011;54596;43.216;27.904;2023-04-07T04:58:17;24.50;;;13.80;;
67798;SDS011;54596;43.216;27.904;2023-04-07T05:00:43;47.92;;;21.73;;
67798;SDS011;54596;43.216;27.904;2023-04-07T05:03:15;32.55;;;21.50;;
67798;SDS011;54596;43.216;27.904;2023-04-07T05:06:02;24.90;;;14.35;;
67798;SDS011;54596;43.216;27.904;2023-04-07T05:08:29;202.60;;;27.23;;
67798;SDS011;54596;43.216;27.904;2023-04-07T05:10:55;43.05;;;20.45;;
67798;SDS011;54596;43.216;27.904;2023-04-07T05:13:22;53.95;;;28.52;;
67798;SDS011;54596;43.216;27.904;2023-04-07T05:15:49;55.63;;;24.08;;
67798;SDS011;54596;43.216;27.904;2023-04-07T05:18:15;40.60;;;21.65;;
67798;SDS011;54596;43.216;27.904;2023-04-07T05:20:40;78.00;;;20.15;;
67798;SDS011;54596;43.216;27.904;2023-04-07T05:23:06;43.42;;;18.45;;
67798;SDS011;54596;43.216;27.904;2023-04-07T05:25:31;36.05;;;20.60;;
67798;SDS011;54596;43.216;27.904;2023-04-07T05:27:57;240.10;;;46.38;;
67798;SDS011;54596;43.216;27.904;2023-04-07T05:30:23;121.78;;;33.13;;
67798;SDS011;54596;43.216;27.904;2023-04-07T05:32:51;67.43;;;32.25;;
67798;SDS011;54596;43.216;27.904;2023-04-07T05:35:17;51.88;;;23.23;;
67798;SDS011;54596;43.216;27.904;2023-04-07T05:37:43;106.43;;;29.85;;
67798;SDS011;54596;43.216;27.904;2023-04-07T05:40:15;62.70;;;29.92;;
67798;SDS011;54596;43.216;27.904;2023-04-07T05:42:42;45.38;;;22.15;;
67798;SDS011;54596;43.216;27.904;2023-04-07T05:45:08;44.33;;;22.95;;
67798;SDS011;54596;43.216;27.904;2023-04-07T05:47:34;47.13;;;24.58;;
67798;SDS011;54596;43.216;27.904;2023-04-07T05:50:00;45.35;;;20.40;;
67798;SDS011;54596;43.216;27.904;2023-04-07T05:52:25;36.92;;;16.67;;
67798;SDS011;54596;43.216;27.904;2023-04-07T05:54:51;46.35;;;21.98;;
67798;SDS011;54596;43.216;27.904;2023-04-07T05:57:16;92.50;;;51.00;;
67798;SDS011;54596;43.216;27.904;2023-04-07T05:59:42;81.50;;;50.50;;
67798;SDS011;54596;43.216;27.904;2023-04-07T06:02:07;77.30;;;35.95;;
67798;SDS011;54596;43.216;27.904;2023-04-07T06:04:34;83.18;;;20.30;;
67798;SDS011;54596;43.216;27.904;2023-04-07T06:07:01;45.00;;;22.00;;
67798;SDS011;54596;43.216;27.904;2023-04-07T06:09:27;37.40;;;25.17;;
67798;SDS011;54596;43.216;27.904;2023-04-07T06:11:52;39.03;;;26.55;;
67798;SDS011;54596;43.216;27.904;2023-04-07T06:14:18;43.35;;;24.58;;
67798;SDS011;54596;43.216;27.904;2023-04-07T06:16:43;46.05;;;16.33;;
67798;SDS011;54596;43.216;27.904;2023-04-07T06:19:09;31.40;;;13.70;;
67798;SDS011;54596;43.216;27.904;2023-04-07T06:21:35;51.30;;;14.77;;
67798;SDS011;54596;43.216;27.904;2023-04-07T06:24:00;29.73;;;12.55;;
67798;SDS011;54596;43.216;27.904;2023-04-07T06:26:27;31.98;;;13.40;;
67798;SDS011;54596;43.216;27.904;2023-04-07T06:28:53;23.83;;;12.68;;
67798;SDS011;54596;43.216;27.904;2023-04-07T06:31:25;34.33;;;16.17;;
67798;SDS011;54596;43.216;27.904;2023-04-07T06:33:52;37.05;;;13.65;;
67798;SDS011;54596;43.216;27.904;2023-04-07T06:36:17;35.28;;;17.83;;
67798;SDS011;54596;43.216;27.904;2023-04-07T06:38:45;27.40;;;15.45;;
67798;SDS011;54596;43.216;27.904;2023-04-07T06:41:12;24.77;;;16.25;;
67798;SDS011;54596;43.216;27.904;2023-04-07T06:43:41;18.02;;;12.05;;
67798;SDS011;54596;43.216;27.904;2023-04-07T06:46:12;23.48;;;12.35;;
67798;SDS011;54596;43.216;27.904;2023-04-07T06:48:38;26.55;;;13.25;;
67798;SDS011;54596;43.216;27.904;2023-04-07T06:51:03;60.13;;;12.93;;
67798;SDS011;54596;43.216;27.904;2023-04-07T06:53:29;24.52;;;11.75;;
67798;SDS011;54596;43.216;27.904;2023-04-07T06:58:33;41.53;;;22.67;;
67798;SDS011;54596;43.216;27.904;2023-04-07T07:01:00;85.22;;;30.73;;
67798;SDS011;54596;43.216;27.904;2023-04-07T07:03:26;37.50;;;20.25;;
67798;SDS011;54596;43.216;27.904;2023-04-07T07:05:56;54.45;;;34.65;;
67798;SDS011;54596;43.216;27.904;2023-04-07T07:08:23;32.72;;;22.52;;
67798;SDS011;54596;43.216;27.904;2023-04-07T07:10:50;216.40;;;34.20;;
67798;SDS011;54596;43.216;27.904;2023-04-07T07:13:22;36.95;;;21.52;;
67798;SDS011;54596;43.216;27.904;2023-04-07T07:15:49;20.35;;;12.27;;
67798;SDS011;54596;43.216;27.904;2023-04-07T07:18:15;23.45;;;12.05;;
67798;SDS011;54596;43.216;27.904;2023-04-07T07:20:41;20.85;;;11.38;;
67798;SDS011;54596;43.216;27.904;2023-04-07T07:23:08;39.88;;;13.88;;
67798;SDS011;54596;43.216;27.904;2023-04-07T07:25:34;40.50;;;13.30;;
67798;SDS011;54596;43.216;27.904;2023-04-07T07:28:01;191.60;;;28.08;;
67798;SDS011;54596;43.216;27.904;2023-04-07T07:30:26;44.17;;;13.55;;
67798;SDS011;54596;43.216;27.904;2023-04-07T07:32:52;31.85;;;12.20;;
67798;SDS011;54596;43.216;27.904;2023-04-07T07:35:18;23.17;;;12.77;;
67798;SDS011;54596;43.216;27.904;2023-04-07T07:37:44;152.27;;;17.40;;
67798;SDS011;54596;43.216;27.904;2023-04-07T07:40:10;29.40;;;12.07;;
67798;SDS011;54596;43.216;27.904;2023-04-07T07:42:36;24.75;;;11.75;;
67798;SDS011;54596;43.216;27.904;2023-04-07T07:45:02;31.20;;;11.95;;
67798;SDS011;54596;43.216;27.904;2023-04-07T07:47:28;30.38;;;12.40;;
67798;SDS011;54596;43.216;27.904;2023-04-07T07:49:54;26.70;;;12.15;;
67798;SDS011;54596;43.216;27.904;2023-04-07T07:52:19;52.03;;;14.25;;
67798;SDS011;54596;43.216;27.904;2023-04-07T07:54:45;46.25;;;14.25;;
67798;SDS011;54596;43.216;27.904;2023-04-07T07:57:12;40.83;;;14.40;;
67798;SDS011;54596;43.216;27.904;2023-04-07T07:59:38;35.05;;;14.35;;
67798;SDS011;54596;43.216;27.904;2023-04-07T08:02:05;34.55;;;13.52;;
67798;SDS011;54596;43.216;27.904;2023-04-07T08:04:31;38.70;;;12.18;;
67798;SDS011;54596;43.216;27.904;2023-04-07T08:06:56;27.30;;;11.63;;
67798;SDS011;54596;43.216;27.904;2023-04-07T08:09:22;35.13;;;12.77;;
67798;SDS011;54596;43.216;27.904;2023-04-07T08:11:48;152.73;;;16.80;;
67798;SDS011;54596;43.216;27.904;2023-04-07T08:14:14;30.98;;;12.05;;
67798;SDS011;54596;43.216;27.904;2023-04-07T08:16:39;93.45;;;15.38;;
67798;SDS011;54596;43.216;27.904;2023-04-07T08:19:05;86.03;;;16.08;;
67798;SDS011;54596;43.216;27.904;2023-04-07T08:21:30;37.17;;;12.18;;
67798;SDS011;54596;43.216;27.904;2023-04-07T08:23:56;22.85;;;11.10;;
67798;SDS011;54596;43.216;27.904;2023-04-07T08:26:22;21.13;;;10.55;;
67798;SDS011;54596;43.216;27.904;2023-04-07T08:28:48;21.25;;;12.55;;
67798;SDS011;54596;43.216;27.904;2023-04-07T08:31:17;51.25;;;13.60;;
67798;SDS011;54596;43.216;27.904;2023-04-07T08:33:43;142.68;;;19.95;;
67798;SDS011;54596;43.216;27.904;2023-04-07T08:36:08;22.73;;;12.05;;
67798;SDS011;54596;43.216;27.904;2023-04-07T08:38:34;21.13;;;11.13;;
67798;SDS011;54596;43.216;27.904;2023-04-07T08:41:02;18.15;;;11.07;;
67798;SDS011;54596;43.216;27.904;2023-04-07T08:45:59;25.20;;;14.27;;
67798;SDS011;54596;43.216;27.904;2023-04-07T08:48:26;21.45;;;12.75;;
67798;SDS011;54596;43.216;27.904;2023-04-07T08:50:57;33.80;;;20.10;;
67798;SDS011;54596;43.216;27.904;2023-04-07T08:53:30;48.15;;;28.45;;
67798;SDS011;54596;43.216;27.904;2023-04-07T08:56:00;24.42;;;15.55;;
67798;SDS011;54596;43.216;27.904;2023-04-07T08:58:27;31.55;;;16.73;;
67798;SDS011;54596;43.216;27.904;2023-04-07T09:00:53;27.20;;;13.48;;
67798;SDS011;54596;43.216;27.904;2023-04-07T09:03:19;22.73;;;11.82;;
67798;SDS011;54596;43.216;27.904;2023-04-07T09:05:45;19.92;;;12.25;;
67798;SDS011;54596;43.216;27.904;2023-04-07T09:08:11;35.88;;;24.33;;
67798;SDS011;54596;43.216;27.904;2023-04-07T09:10:37;29.35;;;16.83;;
67798;SDS011;54596;43.216;27.904;2023-04-07T09:13:02;21.52;;;13.25;;
67798;SDS011;54596;43.216;27.904;2023-04-07T09:15:31;20.63;;;12.85;;
67798;SDS011;54596;43.216;27.904;2023-04-07T09:17:58;21.92;;;12.35;;
67798;SDS011;54596;43.216;27.904;2023-04-07T09:20:24;23.52;;;12.80;;
67798;SDS011;54596;43.216;27.904;2023-04-07T09:22:49;18.80;;;11.30;;
67798;SDS011;54596;43.216;27.904;2023-04-07T09:25:19;20.77;;;11.23;;
67798;SDS011;54596;43.216;27.904;2023-04-07T09:27:57;22.75;;;12.30;;
67798;SDS011;54596;43.216;27.904;2023-04-07T09:30:26;20.10;;;11.07;;
67798;SDS011;54596;43.216;27.904;2023-04-07T09:32:52;19.20;;;11.20;;
67798;SDS011;54596;43.216;27.904;2023-04-07T09:35:18;20.08;;;11.30;;
67798;SDS011;54596;43.216;27.904;2023-04-07T09:41:04;27.17;;;13.38;;
67798;SDS011;54596;43.216;27.904;2023-04-07T09:43:42;29.27;;;13.57;;
67798;SDS011;54596;43.216;27.904;2023-04-07T09:48:44;20.65;;;10.68;;
67798;SDS011;54596;43.216;27.904;2023-04-07T09:51:12;19.85;;;11.15;;
67798;SDS011;54596;43.216;27.904;2023-04-07T09:53:50;23.00;;;11.40;;
67798;SDS011;54596;43.216;27.904;2023-04-07T09:56:17;17.02;;;9.93;;
67798;SDS011;54596;43.216;27.904;2023-04-07T09:58:46;35.53;;;11.20;;
67798;SDS011;54596;43.216;27.904;2023-04-07T10:01:13;25.10;;;11.20;;
67798;SDS011;54596;43.216;27.904;2023-04-07T10:03:46;41.33;;;11.88;;
67798;SDS011;54596;43.216;27.904;2023-04-07T10:06:13;72.93;;;13.13;;
67798;SDS011;54596;43.216;27.904;2023-04-07T10:08:41;58.38;;;12.75;;
67798;SDS011;54596;43.216;27.904;2023-04-07T10:11:09;28.60;;;11.75;;
67798;SDS011;54596;43.216;27.904;2023-04-07T10:13:35;52.75;;;11.68;;
67798;SDS011;54596;43.216;27.904;2023-04-07T10:16:04;21.27;;;10.80;;
67798;SDS011;54596;43.216;27.904;2023-04-07T10:18:31;27.35;;;11.52;;
67798;SDS011;54596;43.216;27.904;2023-04-07T10:21:02;18.00;;;10.40;;
67798;SDS011;54596;43.216;27.904;2023-04-07T10:26:18;36.75;;;11.93;;
67798;SDS011;54596;43.216;27.904;2023-04-07T10:28:50;32.53;;;10.82;;
67798;SDS011;54596;43.216;27.904;2023-04-07T10:31:20;30.98;;;12.07;;
67798;SDS011;54596;43.216;27.904;2023-04-07T10:33:48;25.67;;;10.32;;
67798;SDS011;54596;43.216;27.904;2023-04-07T10:36:19;23.77;;;10.98;;
67798;SDS011;54596;43.216;27.904;2023-04-07T10:41:33;23.83;;;11.40;;
67798;SDS011;54596;43.216;27.904;2023-04-07T10:44:06;76.90;;;14.32;;
67798;SDS011;54596;43.216;27.904;2023-04-07T10:49:17;31.38;;;11.27;;
67798;SDS011;54596;43.216;27.904;2023-04-07T10:51:42;29.27;;;12.82;;
67798;SDS011;54596;43.216;27.904;2023-04-07T10:59:28;55.33;;;13.15;;
67798;SDS011;54596;43.216;27.904;2023-04-07T11:04:38;43.63;;;12.70;;
67798;SDS011;54596;43.216;27.904;2023-04-07T11:07:05;24.00;;;11.30;;
67798;SDS011;54596;43.216;27.904;2023-04-07T11:09:31;17.38;;;10.60;;
67798;SDS011;54596;43.216;27.904;2023-04-07T11:11:56;26.33;;;14.55;;
67798;SDS011;54596;43.216;27.904;2023-04-07T11:14:25;24.58;;;12.60;;
67798;SDS011;54596;43.216;27.904;2023-04-07T11:16:51;21.25;;;12.10;;
67798;SDS011;54596;43.216;27.904;2023-04-07T11:19:17;142.23;;;18.45;;
67798;SDS011;54596;43.216;27.904;2023-04-07T11:21:44;27.02;;;9.95;;
67798;SDS011;54596;43.216;27.904;2023-04-07T11:24:10;67.80;;;12.73;;
67798;SDS011;54596;43.216;27.904;2023-04-07T11:26:58;577.63;;;61.30;;
67798;SDS011;54596;43.216;27.904;2023-04-07T11:29:30;45.78;;;13.07;;
67798;SDS011;54596;43.216;27.904;2023-04-07T11:31:58;18.08;;;10.68;;
67798;SDS011;54596;43.216;27.904;2023-04-07T11:34:29;24.30;;;10.80;;
67798;SDS011;54596;43.216;27.904;2023-04-07T11:36:55;18.63;;;10.52;;
67798;SDS011;54596;43.216;27.904;2023-04-07T11:39:27;21.50;;;10.85;;
67798;SDS011;54596;43.216;27.904;2023-04-07T11:41:55;38.70;;;11.52;;
67798;SDS011;54596;43.216;27.904;2023-04-07T11:44:24;165.15;;;24.30;;
67798;SDS011;54596;43.216;27.904;2023-04-07T11:46:55;22.20;;;11.55;;
67798;SDS011;54596;43.216;27.904;2023-04-07T11:49:20;89.40;;;18.73;;
67798;SDS011;54596;43.216;27.904;2023-04-07T11:51:47;46.05;;;12.32;;
67798;SDS011;54596;43.216;27.904;2023-04-07T11:54:21;18.75;;;11.25;;
67798;SDS011;54596;43.216;27.904;2023-04-07T11:56:47;20.17;;;11.48;;
67798;SDS011;54596;43.216;27.904;2023-04-07T12:01:48;22.20;;;11.77;;
67798;SDS011;54596;43.216;27.904;2023-04-07T12:04:15;18.17;;;11.45;;
67798;SDS011;54596;43.216;27.904;2023-04-07T12:06:41;35.95;;;12.13;;
67798;SDS011;54596;43.216;27.904;2023-04-07T12:09:07;23.58;;;11.38;;
67798;SDS011;54596;43.216;27.904;2023-04-07T12:11:52;33.53;;;13.80;;
67798;SDS011;54596;43.216;27.904;2023-04-07T12:14:18;24.52;;;11.75;;
67798;SDS011;54596;43.216;27.904;2023-04-07T12:16:44;22.67;;;11.77;;
67798;SDS011;54596;43.216;27.904;2023-04-07T12:19:10;33.42;;;15.52;;
67798;SDS011;54596;43.216;27.904;2023-04-07T12:21:37;19.25;;;10.48;;
67798;SDS011;54596;43.216;27.904;2023-04-07T12:24:03;15.40;;;10.50;;
67798;SDS011;54596;43.216;27.904;2023-04-07T12:26:28;19.10;;;11.30;;
67798;SDS011;54596;43.216;27.904;2023-04-07T12:28:54;17.98;;;10.77;;
67798;SDS011;54596;43.216;27.904;2023-04-07T12:31:20;16.83;;;10.52;;
67798;SDS011;54596;43.216;27.904;2023-04-07T12:33:46;34.88;;;13.35;;
67798;SDS011;54596;43.216;27.904;2023-04-07T12:38:55;22.33;;;11.20;;
67798;SDS011;54596;43.216;27.904;2023-04-07T12:41:21;26.85;;;12.48;;
67798;SDS011;54596;43.216;27.904;2023-04-07T12:43:47;25.30;;;11.25;;
67798;SDS011;54596;43.216;27.904;2023-04-07T12:46:13;25.80;;;11.63;;
67798;SDS011;54596;43.216;27.904;2023-04-07T12:48:39;34.25;;;11.40;;
67798;SDS011;54596;43.216;27.904;2023-04-07T12:51:05;27.85;;;11.27;;
67798;SDS011;54596;43.216;27.904;2023-04-07T12:53:32;19.88;;;11.45;;
67798;SDS011;54596;43.216;27.904;2023-04-07T12:55:58;27.02;;;11.40;;
67798;SDS011;54596;43.216;27.904;2023-04-07T12:58:23;22.30;;;11.13;;
67798;SDS011;54596;43.216;27.904;2023-04-07T13:00:51;20.27;;;10.85;;
67798;SDS011;54596;43.216;27.904;2023-04-07T13:03:18;23.17;;;11.05;;
67798;SDS011;54596;43.216;27.904;2023-04-07T13:05:44;30.15;;;11.68;;
67798;SDS011;54596;43.216;27.904;2023-04-07T13:08:10;18.95;;;10.35;;
67798;SDS011;54596;43.216;27.904;2023-04-07T13:10:36;19.60;;;10.57;;
67798;SDS011;54596;43.216;27.904;2023-04-07T13:13:02;22.13;;;11.85;;
67798;SDS011;54596;43.216;27.904;2023-04-07T13:15:27;21.10;;;12.05;;
67798;SDS011;54596;43.216;27.904;2023-04-07T13:17:53;19.65;;;12.05;;
67798;SDS011;54596;43.216;27.904;2023-04-07T13:20:19;20.70;;;12.95;;
67798;SDS011;54596;43.216;27.904;2023-04-07T13:22:46;32.45;;;15.05;;
67798;SDS011;54596;43.216;27.904;2023-04-07T13:25:12;23.15;;;14.35;;
67798;SDS011;54596;43.216;27.904;2023-04-07T13:27:38;20.45;;;13.73;;
67798;SDS011;54596;43.216;27.904;2023-04-07T13:30:06;23.40;;;14.38;;
67798;SDS011;54596;43.216;27.904;2023-04-07T13:32:32;26.35;;;13.75;;
67798;SDS011;54596;43.216;27.904;2023-04-07T13:34:57;20.10;;;12.18;;
67798;SDS011;54596;43.216;27.904;2023-04-07T13:37:24;49.30;;;14.48;;
67798;SDS011;54596;43.216;27.904;2023-04-07T13:39:49;21.67;;;12.50;;
67798;SDS011;54596;43.216;27.904;2023-04-07T13:42:16;19.85;;;12.98;;
67798;SDS011;54596;43.216;27.904;2023-04-07T13:44:41;24.13;;;13.02;;
67798;SDS011;54596;43.216;27.904;2023-04-07T13:47:09;22.23;;;13.98;;
67798;SDS011;54596;43.216;27.904;2023-04-07T13:49:35;24.42;;;14.73;;
67798;SDS011;54596;43.216;27.904;2023-04-07T13:52:01;23.55;;;12.98;;
67798;SDS011;54596;43.216;27.904;2023-04-07T13:54:26;23.92;;;14.50;;
67798;SDS011;54596;43.216;27.904;2023-04-07T13:56:51;23.67;;;14.15;;
67798;SDS011;54596;43.216;27.904;2023-04-07T13:59:17;21.98;;;13.50;;
67798;SDS011;54596;43.216;27.904;2023-04-07T14:01:43;28.52;;;14.48;;
67798;SDS011;54596;43.216;27.904;2023-04-07T14:04:08;20.25;;;13.73;;
67798;SDS011;54596;43.216;27.904;2023-04-07T14:06:36;32.85;;;16.48;;
67798;SDS011;54596;43.216;27.904;2023-04-07T14:09:03;22.70;;;14.77;;
67798;SDS011;54596;43.216;27.904;2023-04-07T14:11:30;24.80;;;13.77;;
67798;SDS011;54596;43.216;27.904;2023-04-07T14:13:56;29.23;;;18.50;;
67798;SDS011;54596;43.216;27.904;2023-04-07T14:16:22;28.17;;;13.90;;
67798;SDS011;54596;43.216;27.904;2023-04-07T14:18:49;21.65;;;12.32;;
67798;SDS011;54596;43.216;27.904;2023-04-07T14:21:15;23.58;;;12.68;;
67798;SDS011;54596;43.216;27.904;2023-04-07T14:23:41;20.42;;;12.18;;
67798;SDS011;54596;43.216;27.904;2023-04-07T14:26:10;19.17;;;11.55;;
67798;SDS011;54596;43.216;27.904;2023-04-07T14:28:36;23.23;;;12.18;;
67798;SDS011;54596;43.216;27.904;2023-04-07T14:31:04;19.55;;;11.57;;
67798;SDS011;54596;43.216;27.904;2023-04-07T14:33:30;20.58;;;12.13;;
67798;SDS011;54596;43.216;27.904;2023-04-07T14:35:56;17.83;;;11.88;;
67798;SDS011;54596;43.216;27.904;2023-04-07T14:38:23;20.13;;;12.38;;
67798;SDS011;54596;43.216;27.904;2023-04-07T14:40:52;23.58;;;13.13;;
67798;SDS011;54596;43.216;27.904;2023-04-07T14:43:18;20.52;;;12.43;;
67798;SDS011;54596;43.216;27.904;2023-04-07T14:45:44;25.77;;;13.88;;